Time;durP1;ratioP1;P1;durP2;ratioP2;P2;SDS_P1;SDS_P2;PMS_P1;PMS_P2;Temp;Humidity;BMP_temperature;BMP_pressure;BME280_temperature;BME280_humidity;BME280_pressure;Samples;Min_cycle;Max_cycle;Signal;HPM_P1;HPM_P2
2021/06/27 00:00:31;;;;;;;12.67;11.57;;;;;;;;;;5134341;27;20517;-60
2021/06/27 00:02:58;;;;;;;12.23;11.13;;;;;;;;;;5134295;27;20440;-59
2021/06/27 00:05:28;;;;;;;13.30;11.97;;;;;;;;;;5134227;27;20486;-60
2021/06/27 00:07:56;;;;;;;12.77;11.60;;;;;;;;;;5133697;27;20517;-59
2021/06/27 00:10:24;;;;;;;11.40;10.37;;;;;;;;;;5134047;27;20802;-60
2021/06/27 00:12:51;;;;;;;12.80;11.60;;;;;;;;;;5134287;28;20480;-59
2021/06/27 00:15:20;;;;;;;12.50;11.30;;;;;;;;;;5134197;28;20497;-59
2021/06/27 00:17:48;;;;;;;11.93;10.83;;;;;;;;;;5141001;28;20537;-60
2021/06/27 00:20:17;;;;;;;12.50;11.40;;;;;;;;;;5145563;28;20437;-60
2021/06/27 00:22:46;;;;;;;11.63;10.43;;;;;;;;;;5143091;27;20445;-60
2021/06/27 00:25:14;;;;;;;11.10;10.10;;;;;;;;;;5146159;27;20436;-59
2021/06/27 00:27:42;;;;;;;12.37;11.10;;;;;;;;;;5143160;27;20956;-60
2021/06/27 00:30:10;;;;;;;11.77;10.63;;;;;;;;;;5145213;27;20441;-60
2021/06/27 00:32:37;;;;;;;11.70;10.60;;;;;;;;;;5144044;27;20498;-60
2021/06/27 00:35:05;;;;;;;11.77;10.67;;;;;;;;;;5143112;27;20489;-60
2021/06/27 00:37:32;;;;;;;11.47;10.57;;;;;;;;;;5142224;27;21024;-59
2021/06/27 00:40:01;;;;;;;13.80;10.87;;;;;;;;;;5143261;27;20489;-60
2021/06/27 00:42:28;;;;;;;11.93;10.73;;;;;;;;;;5143454;27;20446;-60
2021/06/27 00:44:56;;;;;;;12.00;10.90;;;;;;;;;;5144041;27;20452;-60
2021/06/27 00:47:30;;;;;;;11.73;10.63;;;;;;;;;;5144068;27;20470;-60
2021/06/27 00:49:57;;;;;;;10.90;9.93;;;;;;;;;;5139566;27;20496;-60
2021/06/27 00:52:25;;;;;;;10.90;9.90;;;;;;;;;;5139221;27;20441;-60
2021/06/27 00:54:52;;;;;;;11.00;10.00;;;;;;;;;;5138712;27;20444;-60
2021/06/27 00:57:22;;;;;;;11.27;10.27;;;;;;;;;;5138287;27;20520;-59
2021/06/27 00:59:49;;;;;;;10.67;9.67;;;;;;;;;;5137634;27;20516;-60
2021/06/27 01:02:16;;;;;;;10.40;9.30;;;;;;;;;;5137886;27;20444;-60
2021/06/27 01:04:43;;;;;;;12.63;10.30;;;;;;;;;;5137648;27;20444;-60
2021/06/27 01:07:11;;;;;;;10.80;9.83;;;;;;;;;;5137607;27;20488;-58
2021/06/27 01:09:39;;;;;;;10.47;9.57;;;;;;;;;;5137432;27;20441;-60
2021/06/27 01:12:07;;;;;;;10.70;9.67;;;;;;;;;;5137498;27;20501;-59
2021/06/27 01:14:35;;;;;;;9.50;8.70;;;;;;;;;;5137554;27;20472;-61
2021/06/27 01:17:02;;;;;;;10.47;9.47;;;;;;;;;;5137571;27;20456;-60
2021/06/27 01:19:31;;;;;;;10.27;9.37;;;;;;;;;;5138247;27;20448;-59
2021/06/27 01:22:00;;;;;;;10.90;9.90;;;;;;;;;;5138736;27;20508;-60
2021/06/27 01:24:27;;;;;;;11.00;9.90;;;;;;;;;;5138280;27;20433;-59
2021/06/27 01:26:55;;;;;;;9.87;9.03;;;;;;;;;;5137822;27;20865;-60
2021/06/27 01:29:22;;;;;;;8.90;8.10;;;;;;;;;;5137191;27;20444;-60
2021/06/27 01:31:50;;;;;;;10.03;9.13;;;;;;;;;;5136819;27;20440;-60
2021/06/27 01:34:17;;;;;;;10.17;9.37;;;;;;;;;;5136992;27;20472;-60
2021/06/27 01:36:44;;;;;;;10.50;9.50;;;;;;;;;;5136147;27;20521;-61
2021/06/27 01:39:13;;;;;;;10.80;9.70;;;;;;;;;;5136775;27;20449;-60
2021/06/27 01:41:48;;;;;;;10.23;9.23;;;;;;;;;;5137048;27;20448;-60
2021/06/27 01:44:15;;;;;;;9.87;8.97;;;;;;;;;;5136824;27;20428;-60
2021/06/27 01:46:42;;;;;;;11.20;10.20;;;;;;;;;;5136916;27;20464;-60
2021/06/27 01:49:10;;;;;;;9.90;9.00;;;;;;;;;;5138338;27;20444;-60
2021/06/27 01:51:38;;;;;;;12.47;10.73;;;;;;;;;;5137730;27;20495;-59
2021/06/27 01:54:06;;;;;;;10.20;9.27;;;;;;;;;;5138567;27;20472;-59
2021/06/27 01:56:34;;;;;;;10.33;9.33;;;;;;;;;;5139321;27;20871;-59
2021/06/27 01:59:03;;;;;;;10.30;9.40;;;;;;;;;;5144820;27;20493;-59
2021/06/27 02:01:32;;;;;;;10.40;9.30;;;;;;;;;;5141453;27;20444;-61
2021/06/27 02:03:59;;;;;;;11.50;10.30;;;;;;;;;;5137019;27;20444;-60
2021/06/27 02:06:27;;;;;;;11.40;10.27;;;;;;;;;;5136552;27;20513;-60
2021/06/27 02:08:55;;;;;;;11.87;10.77;;;;;;;;;;5136414;27;20436;-60
2021/06/27 02:11:23;;;;;;;11.37;10.13;;;;;;;;;;5136136;27;20489;-60
2021/06/27 02:13:52;;;;;;;11.97;10.80;;;;;;;;;;5136368;27;20468;-59
2021/06/27 02:16:20;;;;;;;10.87;9.77;;;;;;;;;;5136389;27;20481;-59
2021/06/27 02:18:49;;;;;;;13.63;12.30;;;;;;;;;;5136539;27;20444;-60
2021/06/27 02:21:17;;;;;;;14.17;12.20;;;;;;;;;;5136331;27;20451;-60
2021/06/27 02:23:44;;;;;;;14.13;12.23;;;;;;;;;;5135920;27;20437;-60
2021/06/27 02:26:12;;;;;;;14.83;13.33;;;;;;;;;;5136487;27;20444;-60
2021/06/27 02:28:39;;;;;;;20.07;15.00;;;;;;;;;;5137260;27;20512;-60
2021/06/27 02:31:08;;;;;;;15.33;13.70;;;;;;;;;;5136030;27;20448;-60
2021/06/27 02:33:35;;;;;;;15.50;13.40;;;;;;;;;;5135787;27;20876;-60
2021/06/27 02:36:02;;;;;;;17.77;14.13;;;;;;;;;;5135966;27;20940;-59
2021/06/27 02:38:29;;;;;;;21.77;14.40;;;;;;;;;;5136030;27;20448;-61
2021/06/27 02:40:57;;;;;;;15.97;14.10;;;;;;;;;;5135578;27;20928;-59
2021/06/27 02:43:25;;;;;;;16.77;14.93;;;;;;;;;;5135924;27;20437;-59
2021/06/27 02:45:52;;;;;;;18.00;15.97;;;;;;;;;;5135423;27;20996;-60
2021/06/27 02:48:21;;;;;;;19.60;16.70;;;;;;;;;;5134906;27;20464;-60
2021/06/27 02:50:48;;;;;;;17.13;15.07;;;;;;;;;;5135358;27;20441;-60
2021/06/27 02:53:15;;;;;;;18.83;15.70;;;;;;;;;;5135691;27;20490;-60
2021/06/27 02:55:43;;;;;;;17.20;14.70;;;;;;;;;;5135598;27;20501;-60
2021/06/27 02:58:10;;;;;;;18.27;15.77;;;;;;;;;;5135474;27;20521;-60
2021/06/27 03:00:38;;;;;;;16.60;14.20;;;;;;;;;;5136181;27;20444;-59
2021/06/27 03:03:05;;;;;;;16.60;13.70;;;;;;;;;;5136036;27;20449;-60
2021/06/27 03:05:34;;;;;;;15.03;13.17;;;;;;;;;;5136409;27;20444;-60
2021/06/27 03:08:01;;;;;;;14.67;12.10;;;;;;;;;;5136034;27;20476;-59
2021/06/27 03:10:28;;;;;;;14.60;13.10;;;;;;;;;;5135622;27;20459;-59
2021/06/27 03:12:55;;;;;;;14.27;12.83;;;;;;;;;;5135772;27;20470;-59
2021/06/27 03:15:23;;;;;;;16.27;11.90;;;;;;;;;;5135661;27;20548;-60
2021/06/27 03:17:50;;;;;;;14.30;12.80;;;;;;;;;;5134896;27;20964;-60
2021/06/27 03:20:18;;;;;;;15.37;12.80;;;;;;;;;;5143042;27;20462;-60
2021/06/27 03:22:47;;;;;;;17.67;12.73;;;;;;;;;;5144078;27;20440;-60
2021/06/27 03:25:15;;;;;;;13.80;12.40;;;;;;;;;;5141568;27;20460;-60
2021/06/27 03:27:43;;;;;;;14.27;11.90;;;;;;;;;;5140640;27;20820;-59
2021/06/27 03:30:11;;;;;;;14.50;11.63;;;;;;;;;;5135660;27;20444;-58
2021/06/27 03:32:38;;;;;;;14.10;11.50;;;;;;;;;;5134601;27;20449;-60
2021/06/27 03:35:07;;;;;;;13.60;12.20;;;;;;;;;;5134699;27;21039;-60
2021/06/27 03:37:34;;;;;;;13.67;11.77;;;;;;;;;;5134839;27;20512;-60
2021/06/27 03:40:02;;;;;;;12.70;11.40;;;;;;;;;;5134886;27;20474;-60
2021/06/27 03:42:30;;;;;;;13.37;10.90;;;;;;;;;;5134778;27;20846;-59
2021/06/27 03:44:57;;;;;;;12.07;10.63;;;;;;;;;;5134758;27;20444;-60
2021/06/27 03:47:25;;;;;;;13.07;11.53;;;;;;;;;;5134448;27;20882;-60
2021/06/27 03:49:52;;;;;;;12.63;11.33;;;;;;;;;;5135047;27;20447;-59
2021/06/27 03:52:20;;;;;;;12.67;11.17;;;;;;;;;;5134735;27;20493;-61
2021/06/27 03:54:47;;;;;;;12.30;11.10;;;;;;;;;;5134553;27;20507;-61
2021/06/27 03:57:16;;;;;;;14.10;12.03;;;;;;;;;;5134178;27;20464;-60
2021/06/27 03:59:43;;;;;;;12.00;10.80;;;;;;;;;;5134206;27;20448;-60
2021/06/27 04:02:11;;;;;;;13.00;11.60;;;;;;;;;;5134108;27;20985;-60
2021/06/27 04:04:38;;;;;;;10.80;9.70;;;;;;;;;;5134474;27;20456;-59
2021/06/27 04:08:18;;;;;;;12.53;9.10;;;;;;;;;;5091316;27;20558;-59
2021/06/27 04:10:45;;;;;;;11.03;9.83;;;;;;;;;;5090557;28;21007;-58
2021/06/27 04:13:12;;;;;;;10.23;9.20;;;;;;;;;;5090506;28;20492;-59
2021/06/27 04:15:40;;;;;;;11.10;10.00;;;;;;;;;;5090786;28;20442;-58
2021/06/27 04:18:09;;;;;;;10.70;9.60;;;;;;;;;;5090676;28;20468;-59
2021/06/27 04:20:36;;;;;;;10.30;9.17;;;;;;;;;;5090703;28;20454;-59
2021/06/27 04:23:04;;;;;;;11.10;9.93;;;;;;;;;;5090348;28;20819;-59
2021/06/27 04:25:35;;;;;;;10.40;9.47;;;;;;;;;;5090634;28;20851;-59
2021/06/27 04:28:02;;;;;;;9.40;8.40;;;;;;;;;;5090392;28;20493;-59
2021/06/27 04:30:29;;;;;;;10.37;9.10;;;;;;;;;;5090174;28;20507;-59
2021/06/27 04:32:57;;;;;;;9.23;7.93;;;;;;;;;;5091008;28;20445;-58
2021/06/27 04:35:24;;;;;;;10.37;9.20;;;;;;;;;;5090076;28;20446;-58
2021/06/27 04:37:51;;;;;;;9.83;8.83;;;;;;;;;;5089964;28;20462;-59
2021/06/27 04:40:19;;;;;;;9.20;8.27;;;;;;;;;;5090254;28;20443;-58
2021/06/27 04:42:47;;;;;;;9.27;8.37;;;;;;;;;;5090317;28;20448;-59
2021/06/27 04:45:15;;;;;;;8.80;7.90;;;;;;;;;;5089951;28;20444;-59
2021/06/27 04:47:42;;;;;;;8.40;7.60;;;;;;;;;;5090051;28;20486;-60
2021/06/27 04:50:10;;;;;;;10.53;7.90;;;;;;;;;;5090131;28;20447;-59
2021/06/27 04:52:37;;;;;;;11.87;9.07;;;;;;;;;;5090045;28;20504;-59
2021/06/27 04:55:05;;;;;;;10.80;8.50;;;;;;;;;;5090104;28;20451;-59
2021/06/27 04:57:33;;;;;;;9.93;7.70;;;;;;;;;;5089960;28;20503;-59
2021/06/27 05:00:02;;;;;;;8.63;7.83;;;;;;;;;;5089934;28;20444;-60
2021/06/27 05:02:29;;;;;;;7.90;7.20;;;;;;;;;;5089818;28;20791;-59
2021/06/27 05:04:56;;;;;;;8.80;7.90;;;;;;;;;;5089788;28;20474;-59
2021/06/27 05:07:24;;;;;;;9.00;7.23;;;;;;;;;;5089491;28;20557;-58
2021/06/27 05:09:51;;;;;;;11.73;8.63;;;;;;;;;;5089685;28;20511;-59
2021/06/27 05:12:19;;;;;;;8.67;7.67;;;;;;;;;;5089650;28;20460;-59
2021/06/27 05:14:46;;;;;;;8.40;7.50;;;;;;;;;;5089787;28;20450;-60
2021/06/27 05:17:15;;;;;;;9.03;8.20;;;;;;;;;;5089708;28;20465;-59
2021/06/27 05:19:42;;;;;;;10.23;7.90;;;;;;;;;;5075428;28;20450;-59
2021/06/27 05:22:09;;;;;;;7.93;7.23;;;;;;;;;;5075862;28;20946;-58
2021/06/27 05:24:36;;;;;;;7.73;6.90;;;;;;;;;;5075978;28;20488;-59
2021/06/27 05:27:04;;;;;;;7.57;6.87;;;;;;;;;;5075775;28;20508;-59
2021/06/27 05:29:31;;;;;;;8.13;7.43;;;;;;;;;;5076013;28;20460;-59
2021/06/27 05:31:58;;;;;;;7.43;6.73;;;;;;;;;;5075873;28;20462;-59
2021/06/27 05:34:29;;;;;;;7.77;7.03;;;;;;;;;;5075979;28;20495;-59
2021/06/27 05:36:56;;;;;;;7.70;6.60;;;;;;;;;;5075423;28;20985;-60
2021/06/27 05:39:24;;;;;;;8.23;7.43;;;;;;;;;;5076833;28;20454;-60
2021/06/27 05:41:51;;;;;;;8.13;7.47;;;;;;;;;;5075648;28;20527;-60
2021/06/27 05:44:19;;;;;;;7.40;6.70;;;;;;;;;;5075336;28;20448;-60
2021/06/27 05:46:47;;;;;;;5.97;5.47;;;;;;;;;;5075182;28;20477;-58
2021/06/27 05:49:14;;;;;;;8.00;6.50;;;;;;;;;;5075540;28;20460;-59
2021/06/27 05:51:43;;;;;;;7.00;6.43;;;;;;;;;;5075453;28;20442;-60
2021/06/27 05:54:11;;;;;;;5.87;5.37;;;;;;;;;;5075406;28;20454;-60
2021/06/27 05:56:38;;;;;;;6.67;6.00;;;;;;;;;;5075042;28;20987;-60
2021/06/27 05:59:06;;;;;;;7.00;6.37;;;;;;;;;;5075441;28;20445;-60
2021/06/27 06:01:33;;;;;;;5.20;4.80;;;;;;;;;;5075012;28;20861;-59
2021/06/27 06:04:00;;;;;;;6.07;5.57;;;;;;;;;;5075251;28;20872;-59
2021/06/27 06:06:28;;;;;;;6.17;5.67;;;;;;;;;;5074808;28;20506;-60
2021/06/27 06:08:56;;;;;;;6.00;5.50;;;;;;;;;;5074833;28;20510;-59
2021/06/27 06:11:25;;;;;;;5.57;5.00;;;;;;;;;;5075138;28;20530;-59
2021/06/27 06:13:52;;;;;;;5.97;5.43;;;;;;;;;;5074895;28;20491;-60
2021/06/27 06:16:20;;;;;;;7.53;5.70;;;;;;;;;;5074911;28;20476;-60
2021/06/27 06:18:47;;;;;;;9.03;5.57;;;;;;;;;;5074622;28;20447;-60
2021/06/27 06:21:15;;;;;;;6.53;5.90;;;;;;;;;;5074624;28;20507;-60
2021/06/27 06:23:43;;;;;;;7.23;5.27;;;;;;;;;;5074855;28;20445;-61
2021/06/27 06:26:11;;;;;;;6.10;5.50;;;;;;;;;;5075475;28;20452;-60
2021/06/27 06:28:40;;;;;;;6.27;5.67;;;;;;;;;;5074676;28;20572;-59
2021/06/27 06:31:07;;;;;;;6.20;5.50;;;;;;;;;;5073842;28;20456;-60
2021/06/27 06:33:34;;;;;;;7.70;5.87;;;;;;;;;;5074342;28;20996;-59
2021/06/27 06:36:02;;;;;;;6.90;6.40;;;;;;;;;;5074538;28;20504;-60
2021/06/27 06:38:29;;;;;;;5.87;5.07;;;;;;;;;;5074454;28;20441;-58
2021/06/27 06:40:56;;;;;;;6.23;5.63;;;;;;;;;;5074487;28;20454;-60
2021/06/27 06:43:25;;;;;;;7.13;5.97;;;;;;;;;;5074170;28;20444;-59
2021/06/27 06:45:52;;;;;;;6.40;5.73;;;;;;;;;;5074411;28;20449;-60
2021/06/27 06:48:19;;;;;;;7.07;6.47;;;;;;;;;;5073925;28;20540;-60
2021/06/27 06:50:46;;;;;;;5.80;5.30;;;;;;;;;;5074305;28;20466;-59
2021/06/27 06:53:14;;;;;;;7.33;5.50;;;;;;;;;;5074211;28;20448;-58
2021/06/27 06:55:41;;;;;;;6.20;5.27;;;;;;;;;;5074155;28;20450;-59
2021/06/27 06:58:08;;;;;;;5.53;5.03;;;;;;;;;;5074706;28;20540;-59
2021/06/27 07:00:37;;;;;;;5.27;4.77;;;;;;;;;;5074086;28;20501;-58
2021/06/27 07:03:04;;;;;;;6.87;6.23;;;;;;;;;;5074284;28;20449;-59
2021/06/27 07:05:32;;;;;;;6.00;5.40;;;;;;;;;;5073759;28;20837;-59
2021/06/27 07:07:59;;;;;;;6.77;6.07;;;;;;;;;;5073351;28;21009;-59
2021/06/27 07:10:26;;;;;;;5.57;5.07;;;;;;;;;;5073714;28;20451;-59
2021/06/27 07:12:54;;;;;;;5.13;4.73;;;;;;;;;;5073946;28;20497;-58
2021/06/27 07:15:22;;;;;;;5.60;5.10;;;;;;;;;;5073981;28;20447;-58
2021/06/27 07:17:51;;;;;;;5.50;4.90;;;;;;;;;;5074269;28;20465;-58
2021/06/27 07:20:18;;;;;;;7.67;5.27;;;;;;;;;;5074189;28;20443;-58
2021/06/27 07:22:46;;;;;;;5.37;4.90;;;;;;;;;;5073935;28;20452;-59
2021/06/27 07:25:13;;;;;;;5.20;4.70;;;;;;;;;;5074022;28;20453;-57
2021/06/27 07:27:41;;;;;;;6.03;5.43;;;;;;;;;;5075518;28;20488;-59
2021/06/27 07:30:09;;;;;;;5.43;5.03;;;;;;;;;;5075640;28;20447;-59
2021/06/27 07:32:36;;;;;;;6.13;5.47;;;;;;;;;;5075242;28;20448;-59
2021/06/27 07:35:05;;;;;;;5.10;4.70;;;;;;;;;;5074527;28;20447;-59
2021/06/27 07:37:32;;;;;;;4.53;4.23;;;;;;;;;;5076736;28;20491;-62
2021/06/27 07:40:00;;;;;;;5.67;5.27;;;;;;;;;;5074838;28;20951;-59
2021/06/27 07:42:27;;;;;;;5.73;5.17;;;;;;;;;;5073229;28;20449;-58
2021/06/27 07:44:54;;;;;;;5.17;4.40;;;;;;;;;;5073541;28;20492;-59
2021/06/27 07:47:21;;;;;;;5.30;4.80;;;;;;;;;;5073604;28;20553;-59
2021/06/27 07:49:49;;;;;;;6.13;5.63;;;;;;;;;;5073546;28;20443;-58
2021/06/27 07:52:17;;;;;;;5.83;5.33;;;;;;;;;;5073107;28;20513;-56
2021/06/27 07:54:45;;;;;;;6.90;6.30;;;;;;;;;;5073504;28;20448;-60
2021/06/27 07:57:12;;;;;;;5.73;5.23;;;;;;;;;;5073397;28;20465;-59
2021/06/27 07:59:39;;;;;;;5.83;5.33;;;;;;;;;;5073138;28;20450;-58
2021/06/27 08:02:06;;;;;;;5.87;5.20;;;;;;;;;;5073343;28;20440;-58
2021/06/27 08:04:34;;;;;;;5.03;4.53;;;;;;;;;;5073323;28;20444;-59
2021/06/27 08:07:01;;;;;;;6.80;6.20;;;;;;;;;;5072671;28;20974;-58
2021/06/27 08:09:29;;;;;;;5.87;5.27;;;;;;;;;;5072989;28;20457;-59
2021/06/27 08:11:57;;;;;;;5.20;4.80;;;;;;;;;;5073114;28;20442;-59
2021/06/27 08:14:24;;;;;;;5.93;5.43;;;;;;;;;;5073111;28;20859;-59
2021/06/27 08:16:51;;;;;;;5.60;5.10;;;;;;;;;;5072718;28;20470;-59
2021/06/27 08:19:18;;;;;;;5.77;5.37;;;;;;;;;;5072743;28;20497;-59
2021/06/27 08:21:46;;;;;;;4.90;4.50;;;;;;;;;;5073058;28;20447;-60
2021/06/27 08:24:13;;;;;;;6.00;5.40;;;;;;;;;;5072957;28;20448;-58
2021/06/27 08:26:41;;;;;;;6.10;5.60;;;;;;;;;;5072890;28;20549;-58
2021/06/27 08:29:09;;;;;;;5.73;5.33;;;;;;;;;;5073158;28;20483;-58
2021/06/27 08:31:36;;;;;;;5.20;4.80;;;;;;;;;;5072613;28;20449;-58
2021/06/27 08:34:03;;;;;;;5.30;4.90;;;;;;;;;;5072560;28;20448;-59
2021/06/27 08:36:30;;;;;;;4.90;4.50;;;;;;;;;;5072766;28;20524;-58
2021/06/27 08:38:58;;;;;;;5.63;5.23;;;;;;;;;;5072875;28;20444;-58
2021/06/27 08:41:25;;;;;;;5.23;4.83;;;;;;;;;;5072967;28;20450;-59
2021/06/27 08:43:54;;;;;;;5.60;5.20;;;;;;;;;;5073296;28;20922;-59
2021/06/27 08:46:22;;;;;;;5.77;5.33;;;;;;;;;;5072394;28;20468;-59
2021/06/27 08:48:49;;;;;;;5.80;5.40;;;;;;;;;;5072578;28;20475;-58
2021/06/27 08:51:16;;;;;;;6.10;5.47;;;;;;;;;;5072824;28;20451;-58
2021/06/27 08:53:44;;;;;;;5.70;5.20;;;;;;;;;;5074089;28;20468;-60
2021/06/27 08:56:12;;;;;;;4.97;4.47;;;;;;;;;;5076153;28;20449;-60
2021/06/27 08:58:40;;;;;;;6.07;5.50;;;;;;;;;;5076552;28;20457;-60
2021/06/27 09:01:12;;;;;;;6.27;5.77;;;;;;;;;;5076116;28;20989;-60
2021/06/27 09:03:39;;;;;;;5.47;4.97;;;;;;;;;;5076180;28;20909;-59
2021/06/27 09:06:06;;;;;;;5.57;5.17;;;;;;;;;;5076114;28;20499;-60
2021/06/27 09:08:34;;;;;;;5.57;5.07;;;;;;;;;;5076163;28;20466;-60
2021/06/27 09:11:14;;;;;;;5.40;5.00;;;;;;;;;;5076625;28;20450;-59
2021/06/27 09:13:42;;;;;;;4.57;4.27;;;;;;;;;;5076192;28;20445;-58
2021/06/27 09:16:21;;;;;;;4.77;4.47;;;;;;;;;;5076130;28;20453;-59
2021/06/27 09:18:48;;;;;;;5.13;4.63;;;;;;;;;;5076093;28;20443;-60
2021/06/27 09:21:16;;;;;;;5.40;4.93;;;;;;;;;;5076100;28;20492;-59
2021/06/27 09:23:44;;;;;;;5.07;4.77;;;;;;;;;;5075600;28;20447;-59
2021/06/27 09:26:14;;;;;;;4.87;4.47;;;;;;;;;;5075461;28;20859;-59
2021/06/27 09:28:42;;;;;;;5.80;5.40;;;;;;;;;;5075807;28;20519;-60
2021/06/27 09:31:10;;;;;;;5.50;5.00;;;;;;;;;;5076100;28;20445;-59
2021/06/27 09:33:38;;;;;;;5.10;4.80;;;;;;;;;;5076473;28;20501;-59
2021/06/27 09:36:06;;;;;;;5.90;5.50;;;;;;;;;;5076480;28;20443;-60
2021/06/27 09:38:37;;;;;;;5.00;4.70;;;;;;;;;;5076329;28;20471;-60
2021/06/27 09:41:06;;;;;;;5.00;4.60;;;;;;;;;;5076218;28;20886;-60
2021/06/27 09:43:34;;;;;;;5.03;4.63;;;;;;;;;;5076837;28;20964;-60
2021/06/27 09:46:03;;;;;;;4.77;4.47;;;;;;;;;;5076077;28;20457;-59
2021/06/27 09:48:31;;;;;;;5.20;4.80;;;;;;;;;;5076205;28;20492;-60
2021/06/27 09:50:59;;;;;;;4.93;4.40;;;;;;;;;;5076619;28;20445;-60
2021/06/27 09:53:37;;;;;;;5.13;4.77;;;;;;;;;;5075873;28;20461;-60
2021/06/27 09:56:07;;;;;;;5.00;4.70;;;;;;;;;;5075417;28;20926;-61
2021/06/27 09:58:35;;;;;;;5.57;5.07;;;;;;;;;;5075711;28;20442;-60
2021/06/27 10:01:02;;;;;;;4.80;4.50;;;;;;;;;;5076383;28;20454;-60
2021/06/27 10:03:30;;;;;;;5.43;5.03;;;;;;;;;;5075794;28;20928;-60
2021/06/27 10:06:08;;;;;;;5.70;5.30;;;;;;;;;;5075050;28;20504;-61
2021/06/27 10:08:36;;;;;;;4.77;4.40;;;;;;;;;;5075805;28;20468;-60
2021/06/27 10:11:12;;;;;;;4.83;4.43;;;;;;;;;;5075283;28;20458;-60
2021/06/27 10:13:39;;;;;;;4.73;4.33;;;;;;;;;;5074942;28;20439;-60
2021/06/27 10:16:07;;;;;;;5.13;4.63;;;;;;;;;;5074993;28;20460;-60
2021/06/27 10:18:35;;;;;;;4.83;4.43;;;;;;;;;;5074924;28;20947;-60
2021/06/27 10:21:02;;;;;;;5.60;5.10;;;;;;;;;;5074821;28;20526;-60
2021/06/27 10:23:32;;;;;;;4.30;4.00;;;;;;;;;;5074528;28;20444;-60
2021/06/27 10:25:59;;;;;;;4.77;4.47;;;;;;;;;;5075038;28;20437;-60
2021/06/27 10:28:27;;;;;;;5.23;4.83;;;;;;;;;;5074478;28;21001;-60
2021/06/27 10:30:54;;;;;;;4.57;4.27;;;;;;;;;;5074840;28;20451;-60
2021/06/27 10:33:22;;;;;;;6.50;5.90;;;;;;;;;;5076117;28;20497;-60
2021/06/27 10:35:51;;;;;;;4.53;4.20;;;;;;;;;;5075185;28;20446;-60
2021/06/27 10:38:21;;;;;;;5.03;4.63;;;;;;;;;;5074534;28;20462;-59
2021/06/27 10:40:54;;;;;;;6.50;6.00;;;;;;;;;;5074173;28;20800;-59
2021/06/27 10:43:21;;;;;;;5.37;4.87;;;;;;;;;;5074947;28;20509;-59
2021/06/27 10:45:59;;;;;;;4.63;4.23;;;;;;;;;;5074409;28;20443;-60
2021/06/27 10:48:47;;;;;;;4.93;4.53;;;;;;;;;;5074183;28;20481;-60
2021/06/27 10:51:15;;;;;;;6.40;4.13;;;;;;;;;;5069724;28;20506;-59
2021/06/27 10:54:01;;;;;;;4.93;4.30;;;;;;;;;;5074241;28;20445;-59
2021/06/27 10:56:49;;;;;;;4.00;3.70;;;;;;;;;;5073771;28;20991;-58
2021/06/27 10:59:31;;;;;;;5.77;4.67;;;;;;;;;;5073570;28;20441;-58
2021/06/27 11:02:13;;;;;;;5.10;4.60;;;;;;;;;;5073529;28;20445;-59
2021/06/27 11:04:40;;;;;;;4.10;3.80;;;;;;;;;;5073859;28;20890;-58
2021/06/27 11:07:08;;;;;;;4.77;4.30;;;;;;;;;;5073469;28;20533;-60
2021/06/27 11:09:35;;;;;;;5.10;4.70;;;;;;;;;;5073751;28;20481;-59
2021/06/27 11:12:03;;;;;;;4.50;4.10;;;;;;;;;;5073913;28;20449;-60
2021/06/27 11:14:31;;;;;;;5.20;4.70;;;;;;;;;;5073491;28;20473;-61
2021/06/27 11:16:59;;;;;;;4.67;4.37;;;;;;;;;;5073289;28;20465;-59
2021/06/27 11:19:29;;;;;;;4.90;4.50;;;;;;;;;;5073899;28;20531;-60
2021/06/27 11:22:11;;;;;;;5.10;4.63;;;;;;;;;;5073574;28;20442;-59
2021/06/27 11:24:38;;;;;;;4.53;4.13;;;;;;;;;;5073386;28;20522;-59
2021/06/27 11:27:06;;;;;;;4.93;4.53;;;;;;;;;;5073681;28;20889;-59
2021/06/27 11:29:47;;;;;;;4.97;4.47;;;;;;;;;;5073548;28;20481;-58
2021/06/27 11:32:44;;;;;;;4.70;4.30;;;;;;;;;;5073470;28;20450;-59
2021/06/27 11:35:33;;;;;;;4.17;3.87;;;;;;;;;;5073825;28;20526;-61
2021/06/27 11:38:01;;;;;;;4.10;3.80;;;;;;;;;;5073975;28;20468;-59
2021/06/27 11:40:48;;;;;;;4.40;4.00;;;;;;;;;;5074297;22;20547;-53
2021/06/27 11:43:15;;;;;;;5.97;5.20;;;;;;;;;;5034095;28;20473;-55
2021/06/27 11:45:44;;;;;;;14.40;13.03;;;;;;;;;;5033686;28;20862;-52
2021/06/27 11:48:12;;;;;;;8.83;8.03;;;;;;;;;;5033554;28;20468;-53
2021/06/27 11:50:42;;;;;;;4.80;4.40;;;;;;;;;;5033490;28;20517;-56
2021/06/27 11:53:10;;;;;;;5.00;4.57;;;;;;;;;;5033545;28;20875;-53
2021/06/27 11:55:38;;;;;;;4.10;3.70;;;;;;;;;;5033735;28;20459;-54
2021/06/27 11:58:06;;;;;;;3.27;3.00;;;;;;;;;;5033624;28;20450;-54
2021/06/27 12:00:35;;;;;;;3.63;3.30;;;;;;;;;;5034025;28;20465;-54
2021/06/27 12:03:06;;;;;;;3.90;3.60;;;;;;;;;;5041261;28;20446;-54
2021/06/27 12:05:33;;;;;;;3.60;3.30;;;;;;;;;;5042229;28;20481;-54
2021/06/27 12:08:06;;;;;;;3.83;3.40;;;;;;;;;;5041810;28;20443;-53
2021/06/27 12:10:33;;;;;;;3.87;3.30;;;;;;;;;;5039978;28;20485;-55
2021/06/27 12:13:02;;;;;;;3.10;2.80;;;;;;;;;;5036158;28;20446;-54
2021/06/27 12:15:31;;;;;;;3.70;3.40;;;;;;;;;;5035810;28;21004;-54
2021/06/27 12:18:00;;;;;;;3.63;3.40;;;;;;;;;;5033923;28;20799;-54
2021/06/27 12:20:27;;;;;;;4.27;3.97;;;;;;;;;;5033380;28;20983;-54
2021/06/27 12:22:56;;;;;;;3.70;3.40;;;;;;;;;;5033237;28;20504;-53
2021/06/27 12:25:28;;;;;;;4.10;3.70;;;;;;;;;;5033524;28;20450;-54
2021/06/27 12:27:56;;;;;;;4.80;3.27;;;;;;;;;;5033947;28;20457;-54
2021/06/27 12:30:38;;;;;;;3.47;3.17;;;;;;;;;;5037126;28;20502;-54
2021/06/27 12:33:07;;;;;;;3.40;3.10;;;;;;;;;;5035818;28;20529;-54
2021/06/27 12:35:34;;;;;;;3.80;3.50;;;;;;;;;;5037723;28;20437;-54
2021/06/27 12:38:02;;;;;;;4.00;3.70;;;;;;;;;;5037204;28;20447;-54
2021/06/27 12:40:31;;;;;;;3.63;3.33;;;;;;;;;;5036743;28;20529;-53
2021/06/27 12:42:59;;;;;;;4.10;3.67;;;;;;;;;;5037115;28;20449;-54
2021/06/27 12:45:27;;;;;;;4.07;3.77;;;;;;;;;;5036982;28;20456;-54
2021/06/27 12:47:57;;;;;;;7.83;4.50;;;;;;;;;;5036700;28;20847;-55
2021/06/27 12:50:36;;;;;;;3.63;3.30;;;;;;;;;;5036464;28;20489;-54
2021/06/27 12:53:04;;;;;;;3.50;3.20;;;;;;;;;;5036599;28;20436;-54
2021/06/27 12:55:33;;;;;;;3.90;3.60;;;;;;;;;;5035474;28;20448;-53
2021/06/27 12:58:00;;;;;;;4.10;3.80;;;;;;;;;;5036103;28;20441;-54
2021/06/27 13:00:31;;;;;;;3.73;3.07;;;;;;;;;;5037050;28;20468;-54
2021/06/27 13:03:13;;;;;;;3.70;3.40;;;;;;;;;;5036568;28;20464;-54
2021/06/27 13:05:40;;;;;;;4.10;3.30;;;;;;;;;;5036874;28;20478;-54
2021/06/27 13:08:08;;;;;;;3.30;3.00;;;;;;;;;;5036372;28;21001;-54
2021/06/27 13:10:36;;;;;;;4.03;3.10;;;;;;;;;;5036490;28;20491;-54
2021/06/27 13:13:05;;;;;;;3.80;3.50;;;;;;;;;;5036143;28;21004;-53
2021/06/27 13:15:37;;;;;;;3.83;3.53;;;;;;;;;;5036301;28;20459;-53
2021/06/27 13:18:05;;;;;;;3.40;3.20;;;;;;;;;;5036017;28;20942;-50
2021/06/27 13:20:39;;;;;;;3.80;3.50;;;;;;;;;;5035837;28;20458;-54
2021/06/27 13:23:08;;;;;;;4.10;3.70;;;;;;;;;;5035897;28;20970;-53
2021/06/27 13:25:43;;;;;;;3.27;2.97;;;;;;;;;;5036176;28;20497;-53
2021/06/27 13:28:12;;;;;;;3.83;3.40;;;;;;;;;;5036143;28;20436;-53
2021/06/27 13:30:56;;;;;;;4.03;3.73;;;;;;;;;;5035402;28;20483;-53
2021/06/27 13:33:24;;;;;;;3.50;3.20;;;;;;;;;;5035537;28;20446;-53
2021/06/27 13:35:59;;;;;;;4.27;3.70;;;;;;;;;;5035884;28;20501;-53
2021/06/27 13:38:27;;;;;;;4.10;3.70;;;;;;;;;;5036114;28;20529;-54
2021/06/27 13:40:56;;;;;;;3.43;3.17;;;;;;;;;;5035417;28;20473;-53
2021/06/27 13:43:23;;;;;;;3.07;2.87;;;;;;;;;;5035466;28;20962;-53
2021/06/27 13:45:52;;;;;;;3.90;3.50;;;;;;;;;;5035643;28;20497;-53
2021/06/27 13:48:19;;;;;;;4.80;3.50;;;;;;;;;;5036033;28;20531;-53
2021/06/27 13:50:47;;;;;;;3.40;3.10;;;;;;;;;;5035866;28;20486;-50
2021/06/27 13:53:14;;;;;;;3.20;2.90;;;;;;;;;;5035873;28;20458;-53
2021/06/27 13:55:42;;;;;;;3.20;3.00;;;;;;;;;;5035646;28;20448;-53
2021/06/27 13:58:10;;;;;;;3.50;3.30;;;;;;;;;;5035879;28;20449;-53
2021/06/27 14:00:38;;;;;;;3.73;3.43;;;;;;;;;;5034981;28;20464;-53
2021/06/27 14:03:05;;;;;;;4.83;3.67;;;;;;;;;;5035946;28;20450;-53
2021/06/27 14:05:32;;;;;;;5.10;4.70;;;;;;;;;;5035350;28;20442;-52
2021/06/27 14:08:01;;;;;;;2.40;2.20;;;;;;;;;;5036318;28;20462;-52
2021/06/27 14:10:28;;;;;;;3.50;3.20;;;;;;;;;;5035052;28;20530;-52
2021/06/27 14:12:56;;;;;;;3.30;3.10;;;;;;;;;;5035043;28;20449;-53
2021/06/27 14:15:25;;;;;;;3.20;3.00;;;;;;;;;;5034906;28;20497;-53
2021/06/27 14:17:55;;;;;;;3.33;3.03;;;;;;;;;;5034862;28;20485;-53
2021/06/27 14:20:23;;;;;;;4.00;3.20;;;;;;;;;;5035047;28;20465;-53
2021/06/27 14:22:50;;;;;;;3.53;3.27;;;;;;;;;;5035223;28;20450;-53
2021/06/27 14:25:18;;;;;;;3.70;3.40;;;;;;;;;;5034954;28;20502;-53
2021/06/27 14:27:45;;;;;;;3.13;2.80;;;;;;;;;;5034695;28;20475;-53
2021/06/27 14:30:13;;;;;;;3.37;2.90;;;;;;;;;;5034473;28;20969;-53
2021/06/27 14:32:41;;;;;;;3.10;2.90;;;;;;;;;;5034640;28;20894;-53
2021/06/27 14:35:11;;;;;;;3.20;3.00;;;;;;;;;;5034634;28;20454;-54
2021/06/27 14:37:39;;;;;;;3.13;2.80;;;;;;;;;;5034555;28;20845;-53
2021/06/27 14:40:07;;;;;;;4.73;3.40;;;;;;;;;;5034326;28;20536;-53
2021/06/27 14:42:35;;;;;;;3.50;3.20;;;;;;;;;;5034372;28;20458;-53
2021/06/27 14:45:02;;;;;;;3.00;2.80;;;;;;;;;;5034722;28;20456;-54